sensor_id;sensor_type;location;lat;lon;timestamp;P1;durP1;ratioP1;P2;durP2;ratioP2
51925;SDS011;37952;51.938;15.480;2022-11-12T00:02:51;1.60;;;1.50;;
51925;SDS011;37952;51.938;15.480;2022-11-12T00:05:54;2.00;;;1.80;;
51925;SDS011;37952;51.938;15.480;2022-11-12T00:12:34;3.40;;;2.10;;
51925;SDS011;37952;51.938;15.480;2022-11-12T00:15:37;2.10;;;2.00;;
51925;SDS011;37952;51.938;15.480;2022-11-12T00:18:46;1.90;;;1.70;;
51925;SDS011;37952;51.938;15.480;2022-11-12T00:21:52;2.10;;;2.00;;
51925;SDS011;37952;51.938;15.480;2022-11-12T00:24:56;2.30;;;2.10;;
51925;SDS011;37952;51.938;15.480;2022-11-12T00:28:03;2.40;;;2.10;;
51925;SDS011;37952;51.938;15.480;2022-11-12T00:31:08;2.40;;;2.20;;
51925;SDS011;37952;51.938;15.480;2022-11-12T00:34:13;2.10;;;2.00;;
51925;SDS011;37952;51.938;15.480;2022-11-12T00:37:16;4.60;;;2.10;;
51925;SDS011;37952;51.938;15.480;2022-11-12T00:40:20;1.90;;;1.80;;
51925;SDS011;37952;51.938;15.480;2022-11-12T00:43:25;2.30;;;2.00;;
51925;SDS011;37952;51.938;15.480;2022-11-12T00:46:29;5.60;;;1.80;;
51925;SDS011;37952;51.938;15.480;2022-11-12T00:49:32;3.60;;;2.00;;
51925;SDS011;37952;51.938;15.480;2022-11-12T00:52:35;1.90;;;1.80;;
51925;SDS011;37952;51.938;15.480;2022-11-12T00:55:38;2.50;;;2.30;;
51925;SDS011;37952;51.938;15.480;2022-11-12T00:58:41;2.30;;;2.20;;
51925;SDS011;37952;51.938;15.480;2022-11-12T01:01:44;2.40;;;2.10;;
51925;SDS011;37952;51.938;15.480;2022-11-12T01:04:48;1.70;;;1.60;;
51925;SDS011;37952;51.938;15.480;2022-11-12T01:07:51;1.70;;;1.60;;
51925;SDS011;37952;51.938;15.480;2022-11-12T01:11:14;2.30;;;1.80;;
51925;SDS011;37952;51.938;15.480;2022-11-12T01:14:22;3.70;;;1.90;;
51925;SDS011;37952;51.938;15.480;2022-11-12T01:17:25;2.20;;;1.60;;
51925;SDS011;37952;51.938;15.480;2022-11-12T01:20:27;2.20;;;1.80;;
51925;SDS011;37952;51.938;15.480;2022-11-12T01:23:31;2.70;;;1.70;;
51925;SDS011;37952;51.938;15.480;2022-11-12T01:26:36;2.10;;;2.00;;
51925;SDS011;37952;51.938;15.480;2022-11-12T01:29:39;2.20;;;1.90;;
51925;SDS011;37952;51.938;15.480;2022-11-12T01:32:42;2.30;;;1.80;;
51925;SDS011;37952;51.938;15.480;2022-11-12T01:35:45;3.80;;;2.10;;
51925;SDS011;37952;51.938;15.480;2022-11-12T01:38:49;1.70;;;1.60;;
51925;SDS011;37952;51.938;15.480;2022-11-12T01:41:53;2.90;;;2.30;;
51925;SDS011;37952;51.938;15.480;2022-11-12T01:44:57;2.10;;;1.70;;
51925;SDS011;37952;51.938;15.480;2022-11-12T01:48:00;2.00;;;1.80;;
51925;SDS011;37952;51.938;15.480;2022-11-12T01:51:04;1.80;;;1.70;;
51925;SDS011;37952;51.938;15.480;2022-11-12T01:54:09;1.90;;;1.80;;
51925;SDS011;37952;51.938;15.480;2022-11-12T01:57:17;2.20;;;2.00;;
51925;SDS011;37952;51.938;15.480;2022-11-12T02:03:27;1.80;;;1.50;;
51925;SDS011;37952;51.938;15.480;2022-11-12T02:06:36;1.40;;;1.30;;
51925;SDS011;37952;51.938;15.480;2022-11-12T02:09:41;2.00;;;1.90;;
51925;SDS011;37952;51.938;15.480;2022-11-12T02:12:44;2.10;;;1.90;;
51925;SDS011;37952;51.938;15.480;2022-11-12T02:16:07;2.40;;;2.20;;
51925;SDS011;37952;51.938;15.480;2022-11-12T02:19:13;1.60;;;1.30;;
51925;SDS011;37952;51.938;15.480;2022-11-12T02:22:17;2.30;;;1.70;;
51925;SDS011;37952;51.938;15.480;2022-11-12T02:25:21;1.90;;;1.80;;
51925;SDS011;37952;51.938;15.480;2022-11-12T02:28:26;1.80;;;1.70;;
51925;SDS011;37952;51.938;15.480;2022-11-12T02:31:32;2.00;;;1.70;;
51925;SDS011;37952;51.938;15.480;2022-11-12T02:34:35;2.30;;;2.10;;
51925;SDS011;37952;51.938;15.480;2022-11-12T02:37:38;2.40;;;1.40;;
51925;SDS011;37952;51.938;15.480;2022-11-12T02:40:41;1.70;;;1.60;;
51925;SDS011;37952;51.938;15.480;2022-11-12T02:43:46;2.10;;;2.00;;
51925;SDS011;37952;51.938;15.480;2022-11-12T02:46:49;3.40;;;1.80;;
51925;SDS011;37952;51.938;15.480;2022-11-12T02:49:52;2.80;;;1.90;;
51925;SDS011;37952;51.938;15.480;2022-11-12T02:52:55;1.50;;;1.40;;
51925;SDS011;37952;51.938;15.480;2022-11-12T02:55:58;8.40;;;2.00;;
51925;SDS011;37952;51.938;15.480;2022-11-12T02:59:06;3.60;;;1.90;;
51925;SDS011;37952;51.938;15.480;2022-11-12T03:02:09;2.90;;;2.40;;
51925;SDS011;37952;51.938;15.480;2022-11-12T03:05:12;3.80;;;3.00;;
51925;SDS011;37952;51.938;15.480;2022-11-12T03:08:15;3.80;;;3.00;;
51925;SDS011;37952;51.938;15.480;2022-11-12T03:11:18;4.40;;;3.20;;
51925;SDS011;37952;51.938;15.480;2022-11-12T03:14:21;4.00;;;2.80;;
51925;SDS011;37952;51.938;15.480;2022-11-12T03:17:25;2.90;;;2.60;;
51925;SDS011;37952;51.938;15.480;2022-11-12T03:20:27;2.90;;;2.70;;
51925;SDS011;37952;51.938;15.480;2022-11-12T03:23:31;3.40;;;3.10;;
51925;SDS011;37952;51.938;15.480;2022-11-12T03:26:34;3.90;;;2.40;;
51925;SDS011;37952;51.938;15.480;2022-11-12T03:29:37;2.60;;;2.40;;
51925;SDS011;37952;51.938;15.480;2022-11-12T03:32:40;2.60;;;2.40;;
51925;SDS011;37952;51.938;15.480;2022-11-12T03:35:43;2.30;;;2.00;;
51925;SDS011;37952;51.938;15.480;2022-11-12T03:38:46;2.10;;;1.80;;
51925;SDS011;37952;51.938;15.480;2022-11-12T03:41:48;2.50;;;2.30;;
51925;SDS011;37952;51.938;15.480;2022-11-12T03:44:51;2.40;;;2.20;;
51925;SDS011;37952;51.938;15.480;2022-11-12T03:47:55;1.80;;;1.70;;
51925;SDS011;37952;51.938;15.480;2022-11-12T03:51:04;2.20;;;2.10;;
51925;SDS011;37952;51.938;15.480;2022-11-12T03:54:07;2.50;;;1.90;;
51925;SDS011;37952;51.938;15.480;2022-11-12T03:57:09;2.40;;;2.20;;
51925;SDS011;37952;51.938;15.480;2022-11-12T04:00:12;2.90;;;2.40;;
51925;SDS011;37952;51.938;15.480;2022-11-12T04:03:16;2.10;;;2.00;;
51925;SDS011;37952;51.938;15.480;2022-11-12T04:06:19;2.30;;;2.00;;
51925;SDS011;37952;51.938;15.480;2022-11-12T04:09:40;2.30;;;2.10;;
51925;SDS011;37952;51.938;15.480;2022-11-12T04:12:43;2.50;;;2.30;;
51925;SDS011;37952;51.938;15.480;2022-11-12T04:19:52;2.00;;;1.80;;
51925;SDS011;37952;51.938;15.480;2022-11-12T04:23:27;2.50;;;2.10;;
51925;SDS011;37952;51.938;15.480;2022-11-12T04:26:30;1.90;;;1.80;;
51925;SDS011;37952;51.938;15.480;2022-11-12T04:29:33;2.10;;;2.00;;
51925;SDS011;37952;51.938;15.480;2022-11-12T04:32:54;7.00;;;2.70;;
51925;SDS011;37952;51.938;15.480;2022-11-12T04:35:58;3.00;;;2.00;;
51925;SDS011;37952;51.938;15.480;2022-11-12T04:39:01;2.60;;;2.40;;
51925;SDS011;37952;51.938;15.480;2022-11-12T04:42:04;4.60;;;2.70;;
51925;SDS011;37952;51.938;15.480;2022-11-12T04:45:26;5.10;;;2.60;;
51925;SDS011;37952;51.938;15.480;2022-11-12T04:48:29;3.00;;;2.40;;
51925;SDS011;37952;51.938;15.480;2022-11-12T04:51:32;2.30;;;2.10;;
51925;SDS011;37952;51.938;15.480;2022-11-12T04:58:25;2.70;;;2.50;;
51925;SDS011;37952;51.938;15.480;2022-11-12T05:01:29;3.30;;;3.00;;
51925;SDS011;37952;51.938;15.480;2022-11-12T05:04:32;2.60;;;2.20;;
51925;SDS011;37952;51.938;15.480;2022-11-12T05:07:35;2.70;;;2.30;;
51925;SDS011;37952;51.938;15.480;2022-11-12T05:10:38;3.60;;;2.50;;
51925;SDS011;37952;51.938;15.480;2022-11-12T05:13:41;2.50;;;2.40;;
51925;SDS011;37952;51.938;15.480;2022-11-12T05:16:44;2.90;;;2.60;;
51925;SDS011;37952;51.938;15.480;2022-11-12T05:19:47;2.40;;;2.20;;
51925;SDS011;37952;51.938;15.480;2022-11-12T05:22:50;2.20;;;2.10;;
51925;SDS011;37952;51.938;15.480;2022-11-12T05:26:10;2.50;;;2.30;;
51925;SDS011;37952;51.938;15.480;2022-11-12T05:29:13;2.40;;;2.20;;
51925;SDS011;37952;51.938;15.480;2022-11-12T05:32:16;2.40;;;2.30;;
51925;SDS011;37952;51.938;15.480;2022-11-12T05:35:20;3.30;;;2.20;;
51925;SDS011;37952;51.938;15.480;2022-11-12T05:38:23;2.70;;;2.60;;
51925;SDS011;37952;51.938;15.480;2022-11-12T05:41:26;2.40;;;2.20;;
51925;SDS011;37952;51.938;15.480;2022-11-12T05:44:50;2.90;;;2.60;;
51925;SDS011;37952;51.938;15.480;2022-11-12T05:47:53;3.10;;;2.90;;
51925;SDS011;37952;51.938;15.480;2022-11-12T05:50:56;3.00;;;2.80;;
51925;SDS011;37952;51.938;15.480;2022-11-12T05:54:14;3.40;;;2.60;;
51925;SDS011;37952;51.938;15.480;2022-11-12T05:57:17;3.60;;;2.60;;
51925;SDS011;37952;51.938;15.480;2022-11-12T06:00:20;3.00;;;2.80;;
51925;SDS011;37952;51.938;15.480;2022-11-12T06:03:23;3.20;;;3.00;;
51925;SDS011;37952;51.938;15.480;2022-11-12T06:06:26;2.70;;;2.60;;
51925;SDS011;37952;51.938;15.480;2022-11-12T06:09:29;2.50;;;2.30;;
51925;SDS011;37952;51.938;15.480;2022-11-12T06:12:33;2.20;;;2.00;;
51925;SDS011;37952;51.938;15.480;2022-11-12T06:15:36;2.60;;;2.50;;
51925;SDS011;37952;51.938;15.480;2022-11-12T06:18:41;2.80;;;2.40;;
51925;SDS011;37952;51.938;15.480;2022-11-12T06:21:43;2.90;;;2.50;;
51925;SDS011;37952;51.938;15.480;2022-11-12T06:24:46;2.70;;;2.50;;
51925;SDS011;37952;51.938;15.480;2022-11-12T06:27:49;2.80;;;2.60;;
51925;SDS011;37952;51.938;15.480;2022-11-12T06:30:52;3.00;;;2.80;;
51925;SDS011;37952;51.938;15.480;2022-11-12T06:33:56;2.20;;;2.10;;
51925;SDS011;37952;51.938;15.480;2022-11-12T06:36:58;2.30;;;2.20;;
51925;SDS011;37952;51.938;15.480;2022-11-12T06:40:02;2.80;;;2.60;;
51925;SDS011;37952;51.938;15.480;2022-11-12T06:43:15;3.70;;;2.20;;
51925;SDS011;37952;51.938;15.480;2022-11-12T06:46:18;2.50;;;2.30;;
51925;SDS011;37952;51.938;15.480;2022-11-12T06:49:22;2.40;;;2.30;;
51925;SDS011;37952;51.938;15.480;2022-11-12T06:52:24;2.70;;;2.50;;
51925;SDS011;37952;51.938;15.480;2022-11-12T06:55:27;2.70;;;2.40;;
51925;SDS011;37952;51.938;15.480;2022-11-12T06:58:30;2.30;;;2.20;;
51925;SDS011;37952;51.938;15.480;2022-11-12T07:01:34;2.20;;;2.10;;
51925;SDS011;37952;51.938;15.480;2022-11-12T07:04:37;3.60;;;3.00;;
51925;SDS011;37952;51.938;15.480;2022-11-12T07:07:39;6.70;;;3.70;;
51925;SDS011;37952;51.938;15.480;2022-11-12T07:10:42;3.10;;;2.40;;
51925;SDS011;37952;51.938;15.480;2022-11-12T07:13:45;3.00;;;2.50;;
51925;SDS011;37952;51.938;15.480;2022-11-12T07:17:08;2.70;;;2.50;;
51925;SDS011;37952;51.938;15.480;2022-11-12T07:20:12;3.20;;;3.00;;
51925;SDS011;37952;51.938;15.480;2022-11-12T07:23:15;2.60;;;2.20;;
51925;SDS011;37952;51.938;15.480;2022-11-12T07:26:19;2.70;;;2.50;;
51925;SDS011;37952;51.938;15.480;2022-11-12T07:29:24;2.90;;;2.70;;
51925;SDS011;37952;51.938;15.480;2022-11-12T07:32:47;2.20;;;2.10;;
51925;SDS011;37952;51.938;15.480;2022-11-12T07:36:00;4.10;;;2.60;;
51925;SDS011;37952;51.938;15.480;2022-11-12T07:39:07;2.20;;;2.10;;
51925;SDS011;37952;51.938;15.480;2022-11-12T07:42:09;3.60;;;3.20;;
51925;SDS011;37952;51.938;15.480;2022-11-12T07:45:16;2.90;;;2.70;;
51925;SDS011;37952;51.938;15.480;2022-11-12T07:48:19;3.30;;;2.90;;
51925;SDS011;37952;51.938;15.480;2022-11-12T07:51:29;3.90;;;2.60;;
51925;SDS011;37952;51.938;15.480;2022-11-12T07:54:32;3.40;;;2.50;;
51925;SDS011;37952;51.938;15.480;2022-11-12T07:57:35;2.60;;;2.50;;
51925;SDS011;37952;51.938;15.480;2022-11-12T08:00:38;2.70;;;2.60;;
51925;SDS011;37952;51.938;15.480;2022-11-12T08:03:41;2.70;;;2.50;;
51925;SDS011;37952;51.938;15.480;2022-11-12T08:06:43;5.00;;;2.60;;
51925;SDS011;37952;51.938;15.480;2022-11-12T08:09:47;2.50;;;2.40;;
51925;SDS011;37952;51.938;15.480;2022-11-12T08:12:49;2.60;;;2.30;;
51925;SDS011;37952;51.938;15.480;2022-11-12T08:15:52;3.20;;;2.50;;
51925;SDS011;37952;51.938;15.480;2022-11-12T08:19:00;2.60;;;2.40;;
51925;SDS011;37952;51.938;15.480;2022-11-12T08:22:03;3.50;;;3.20;;
51925;SDS011;37952;51.938;15.480;2022-11-12T08:25:06;2.60;;;2.10;;
51925;SDS011;37952;51.938;15.480;2022-11-12T08:28:10;2.40;;;2.30;;
51925;SDS011;37952;51.938;15.480;2022-11-12T08:31:14;2.60;;;2.40;;
51925;SDS011;37952;51.938;15.480;2022-11-12T08:34:18;2.70;;;2.60;;
51925;SDS011;37952;51.938;15.480;2022-11-12T08:37:24;9.00;;;3.40;;
51925;SDS011;37952;51.938;15.480;2022-11-12T08:40:28;2.80;;;2.60;;
51925;SDS011;37952;51.938;15.480;2022-11-12T08:43:32;2.70;;;2.50;;
51925;SDS011;37952;51.938;15.480;2022-11-12T08:46:37;3.30;;;3.10;;
51925;SDS011;37952;51.938;15.480;2022-11-12T08:53:09;4.60;;;3.60;;
51925;SDS011;37952;51.938;15.480;2022-11-12T08:56:13;4.00;;;3.60;;
51925;SDS011;37952;51.938;15.480;2022-11-12T08:59:16;3.20;;;2.90;;
51925;SDS011;37952;51.938;15.480;2022-11-12T09:02:19;3.80;;;3.60;;
51925;SDS011;37952;51.938;15.480;2022-11-12T09:05:22;5.10;;;4.70;;
51925;SDS011;37952;51.938;15.480;2022-11-12T09:08:24;4.70;;;4.40;;
51925;SDS011;37952;51.938;15.480;2022-11-12T09:11:28;5.50;;;5.10;;
51925;SDS011;37952;51.938;15.480;2022-11-12T09:14:31;6.20;;;4.90;;
51925;SDS011;37952;51.938;15.480;2022-11-12T09:17:34;5.20;;;4.70;;
51925;SDS011;37952;51.938;15.480;2022-11-12T09:20:37;9.70;;;5.40;;
51925;SDS011;37952;51.938;15.480;2022-11-12T09:23:40;7.70;;;6.30;;
51925;SDS011;37952;51.938;15.480;2022-11-12T09:26:43;7.30;;;6.60;;
51925;SDS011;37952;51.938;15.480;2022-11-12T09:29:46;6.60;;;5.90;;
51925;SDS011;37952;51.938;15.480;2022-11-12T09:32:49;7.00;;;4.50;;
51925;SDS011;37952;51.938;15.480;2022-11-12T09:35:52;5.10;;;4.60;;
51925;SDS011;37952;51.938;15.480;2022-11-12T09:38:55;7.00;;;4.90;;
51925;SDS011;37952;51.938;15.480;2022-11-12T09:41:58;6.70;;;6.10;;
51925;SDS011;37952;51.938;15.480;2022-11-12T09:48:38;7.80;;;7.00;;
51925;SDS011;37952;51.938;15.480;2022-11-12T09:58:15;6.50;;;5.80;;
51925;SDS011;37952;51.938;15.480;2022-11-12T10:01:30;7.70;;;6.70;;
51925;SDS011;37952;51.938;15.480;2022-11-12T10:04:46;6.90;;;6.20;;
51925;SDS011;37952;51.938;15.480;2022-11-12T10:11:46;5.60;;;5.10;;
51925;SDS011;37952;51.938;15.480;2022-11-12T10:26:16;5.70;;;5.10;;
51925;SDS011;37952;51.938;15.480;2022-11-12T10:29:32;7.40;;;5.40;;
51925;SDS011;37952;51.938;15.480;2022-11-12T10:32:42;5.60;;;5.10;;
51925;SDS011;37952;51.938;15.480;2022-11-12T10:35:47;4.20;;;3.90;;
51925;SDS011;37952;51.938;15.480;2022-11-12T10:38:52;6.00;;;5.40;;
51925;SDS011;37952;51.938;15.480;2022-11-12T10:42:10;7.70;;;5.10;;
51925;SDS011;37952;51.938;15.480;2022-11-12T10:45:19;6.70;;;5.10;;
51925;SDS011;37952;51.938;15.480;2022-11-12T10:48:30;6.90;;;6.20;;
51925;SDS011;37952;51.938;15.480;2022-11-12T10:51:36;6.60;;;4.50;;
51925;SDS011;37952;51.938;15.480;2022-11-12T10:54:39;7.10;;;4.30;;
51925;SDS011;37952;51.938;15.480;2022-11-12T10:57:42;6.40;;;5.70;;
51925;SDS011;37952;51.938;15.480;2022-11-12T11:04:02;8.40;;;7.70;;
51925;SDS011;37952;51.938;15.480;2022-11-12T11:07:05;10.30;;;9.30;;
51925;SDS011;37952;51.938;15.480;2022-11-12T11:10:25;7.10;;;6.40;;
51925;SDS011;37952;51.938;15.480;2022-11-12T11:13:37;6.40;;;5.80;;
51925;SDS011;37952;51.938;15.480;2022-11-12T11:16:47;7.30;;;6.60;;
51925;SDS011;37952;51.938;15.480;2022-11-12T11:19:52;10.60;;;7.40;;
51925;SDS011;37952;51.938;15.480;2022-11-12T11:22:55;14.10;;;8.00;;
51925;SDS011;37952;51.938;15.480;2022-11-12T11:26:16;7.30;;;5.50;;
51925;SDS011;37952;51.938;15.480;2022-11-12T11:33:04;9.60;;;6.80;;
51925;SDS011;37952;51.938;15.480;2022-11-12T11:39:40;8.30;;;7.50;;
51925;SDS011;37952;51.938;15.480;2022-11-12T11:43:06;8.90;;;8.10;;
51925;SDS011;37952;51.938;15.480;2022-11-12T11:46:57;13.50;;;7.40;;
51925;SDS011;37952;51.938;15.480;2022-11-12T11:50:26;7.40;;;6.10;;
51925;SDS011;37952;51.938;15.480;2022-11-12T11:53:37;8.90;;;7.70;;
51925;SDS011;37952;51.938;15.480;2022-11-12T11:56:48;18.20;;;9.80;;
51925;SDS011;37952;51.938;15.480;2022-11-12T12:03:22;8.80;;;6.70;;
51925;SDS011;37952;51.938;15.480;2022-11-12T12:06:58;11.10;;;7.50;;
51925;SDS011;37952;51.938;15.480;2022-11-12T12:17:54;9.10;;;7.70;;
51925;SDS011;37952;51.938;15.480;2022-11-12T12:21:12;5.80;;;5.20;;
51925;SDS011;37952;51.938;15.480;2022-11-12T12:24:34;5.30;;;4.80;;
51925;SDS011;37952;51.938;15.480;2022-11-12T12:27:59;5.10;;;4.70;;
51925;SDS011;37952;51.938;15.480;2022-11-12T12:34:22;6.40;;;5.80;;
51925;SDS011;37952;51.938;15.480;2022-11-12T12:37:36;6.20;;;4.20;;
51925;SDS011;37952;51.938;15.480;2022-11-12T12:41:36;4.10;;;3.30;;
51925;SDS011;37952;51.938;15.480;2022-11-12T12:44:14;4.70;;;3.50;;
51925;SDS011;37952;51.938;15.480;2022-11-12T12:47:17;6.80;;;4.00;;
51925;SDS011;37952;51.938;15.480;2022-11-12T12:50:22;5.10;;;4.60;;
51925;SDS011;37952;51.938;15.480;2022-11-12T12:59:32;3.80;;;3.50;;
51925;SDS011;37952;51.938;15.480;2022-11-12T13:02:36;3.40;;;2.80;;
51925;SDS011;37952;51.938;15.480;2022-11-12T13:05:40;4.50;;;2.90;;
51925;SDS011;37952;51.938;15.480;2022-11-12T13:08:43;4.20;;;3.10;;
51925;SDS011;37952;51.938;15.480;2022-11-12T13:11:47;3.30;;;3.00;;
51925;SDS011;37952;51.938;15.480;2022-11-12T13:15:11;4.20;;;3.80;;
51925;SDS011;37952;51.938;15.480;2022-11-12T13:21:41;4.70;;;3.00;;
51925;SDS011;37952;51.938;15.480;2022-11-12T13:28:10;3.50;;;2.70;;
51925;SDS011;37952;51.938;15.480;2022-11-12T13:31:32;4.10;;;2.90;;
51925;SDS011;37952;51.938;15.480;2022-11-12T13:34:35;4.00;;;3.50;;
51925;SDS011;37952;51.938;15.480;2022-11-12T13:37:42;6.70;;;2.70;;
51925;SDS011;37952;51.938;15.480;2022-11-12T13:43:57;3.70;;;2.70;;
51925;SDS011;37952;51.938;15.480;2022-11-12T13:47:00;3.50;;;3.20;;
51925;SDS011;37952;51.938;15.480;2022-11-12T13:50:03;4.40;;;3.80;;
51925;SDS011;37952;51.938;15.480;2022-11-12T13:53:11;5.80;;;4.00;;
51925;SDS011;37952;51.938;15.480;2022-11-12T13:59:31;3.00;;;2.60;;
51925;SDS011;37952;51.938;15.480;2022-11-12T14:02:35;3.10;;;2.70;;
51925;SDS011;37952;51.938;15.480;2022-11-12T14:05:45;5.60;;;3.70;;
51925;SDS011;37952;51.938;15.480;2022-11-12T14:12:33;5.10;;;4.60;;
51925;SDS011;37952;51.938;15.480;2022-11-12T14:22:38;8.10;;;6.30;;
51925;SDS011;37952;51.938;15.480;2022-11-12T14:25:47;7.50;;;6.30;;
51925;SDS011;37952;51.938;15.480;2022-11-12T14:28:54;10.40;;;8.30;;
51925;SDS011;37952;51.938;15.480;2022-11-12T14:31:59;6.50;;;5.90;;
51925;SDS011;37952;51.938;15.480;2022-11-12T14:35:18;5.20;;;4.40;;
51925;SDS011;37952;51.938;15.480;2022-11-12T14:38:33;6.60;;;4.60;;
51925;SDS011;37952;51.938;15.480;2022-11-12T14:41:41;5.30;;;4.90;;
51925;SDS011;37952;51.938;15.480;2022-11-12T14:44:47;6.70;;;5.80;;
51925;SDS011;37952;51.938;15.480;2022-11-12T14:47:54;5.00;;;4.60;;
51925;SDS011;37952;51.938;15.480;2022-11-12T14:51:24;4.60;;;4.10;;
51925;SDS011;37952;51.938;15.480;2022-11-12T14:54:34;4.40;;;3.80;;
51925;SDS011;37952;51.938;15.480;2022-11-12T14:57:43;4.60;;;4.20;;
51925;SDS011;37952;51.938;15.480;2022-11-12T15:00:47;6.00;;;5.10;;
51925;SDS011;37952;51.938;15.480;2022-11-12T15:04:02;5.40;;;4.90;;
51925;SDS011;37952;51.938;15.480;2022-11-12T15:07:31;7.10;;;4.70;;
51925;SDS011;37952;51.938;15.480;2022-11-12T15:10:37;5.30;;;4.00;;
51925;SDS011;37952;51.938;15.480;2022-11-12T15:13:42;5.10;;;4.60;;
51925;SDS011;37952;51.938;15.480;2022-11-12T15:16:47;6.70;;;5.90;;
51925;SDS011;37952;51.938;15.480;2022-11-12T15:19:50;7.50;;;6.00;;
51925;SDS011;37952;51.938;15.480;2022-11-12T15:22:56;6.70;;;5.10;;
51925;SDS011;37952;51.938;15.480;2022-11-12T15:26:00;4.80;;;4.30;;
51925;SDS011;37952;51.938;15.480;2022-11-12T15:35:19;9.20;;;7.20;;
51925;SDS011;37952;51.938;15.480;2022-11-12T15:38:34;15.80;;;11.10;;
51925;SDS011;37952;51.938;15.480;2022-11-12T15:41:39;13.00;;;9.10;;
51925;SDS011;37952;51.938;15.480;2022-11-12T15:44:42;16.70;;;8.80;;
51925;SDS011;37952;51.938;15.480;2022-11-12T15:54:18;11.30;;;8.10;;
51925;SDS011;37952;51.938;15.480;2022-11-12T15:57:22;11.40;;;9.40;;
51925;SDS011;37952;51.938;15.480;2022-11-12T16:00:33;12.80;;;7.50;;
51925;SDS011;37952;51.938;15.480;2022-11-12T16:03:38;6.50;;;5.90;;
51925;SDS011;37952;51.938;15.480;2022-11-12T16:06:41;7.50;;;6.20;;
51925;SDS011;37952;51.938;15.480;2022-11-12T16:09:44;8.10;;;7.20;;
51925;SDS011;37952;51.938;15.480;2022-11-12T16:12:47;12.30;;;7.70;;
51925;SDS011;37952;51.938;15.480;2022-11-12T16:15:52;8.50;;;6.20;;
51925;SDS011;37952;51.938;15.480;2022-11-12T16:18:56;7.20;;;5.50;;
51925;SDS011;37952;51.938;15.480;2022-11-12T16:21:59;9.20;;;6.10;;
51925;SDS011;37952;51.938;15.480;2022-11-12T16:25:03;9.50;;;7.70;;
51925;SDS011;37952;51.938;15.480;2022-11-12T16:28:16;13.20;;;9.40;;
51925;SDS011;37952;51.938;15.480;2022-11-12T16:31:20;16.10;;;9.50;;
51925;SDS011;37952;51.938;15.480;2022-11-12T16:34:23;11.30;;;7.60;;
51925;SDS011;37952;51.938;15.480;2022-11-12T16:37:26;11.10;;;8.10;;
51925;SDS011;37952;51.938;15.480;2022-11-12T16:40:29;12.30;;;8.60;;
51925;SDS011;37952;51.938;15.480;2022-11-12T16:43:32;9.40;;;8.30;;
51925;SDS011;37952;51.938;15.480;2022-11-12T16:46:35;15.20;;;8.90;;
51925;SDS011;37952;51.938;15.480;2022-11-12T16:49:43;11.80;;;8.90;;
51925;SDS011;37952;51.938;15.480;2022-11-12T16:52:46;10.00;;;7.70;;
51925;SDS011;37952;51.938;15.480;2022-11-12T16:55:50;9.00;;;6.90;;
51925;SDS011;37952;51.938;15.480;2022-11-12T16:58:52;11.10;;;7.30;;
51925;SDS011;37952;51.938;15.480;2022-11-12T17:01:55;13.60;;;8.80;;
51925;SDS011;37952;51.938;15.480;2022-11-12T17:05:02;11.10;;;9.50;;
51925;SDS011;37952;51.938;15.480;2022-11-12T17:08:07;11.70;;;9.80;;
51925;SDS011;37952;51.938;15.480;2022-11-12T17:11:11;14.00;;;7.80;;
51925;SDS011;37952;51.938;15.480;2022-11-12T17:14:13;11.60;;;7.70;;
51925;SDS011;37952;51.938;15.480;2022-11-12T17:17:18;10.50;;;7.20;;
51925;SDS011;37952;51.938;15.480;2022-11-12T17:20:20;9.70;;;8.70;;
51925;SDS011;37952;51.938;15.480;2022-11-12T17:23:23;13.20;;;9.10;;
51925;SDS011;37952;51.938;15.480;2022-11-12T17:26:30;14.70;;;10.00;;
51925;SDS011;37952;51.938;15.480;2022-11-12T17:29:33;10.30;;;8.00;;
51925;SDS011;37952;51.938;15.480;2022-11-12T17:32:36;11.30;;;8.20;;
51925;SDS011;37952;51.938;15.480;2022-11-12T17:35:39;10.40;;;9.20;;
51925;SDS011;37952;51.938;15.480;2022-11-12T17:38:43;17.00;;;10.60;;
51925;SDS011;37952;51.938;15.480;2022-11-12T17:41:46;11.30;;;8.20;;
51925;SDS011;37952;51.938;15.480;2022-11-12T17:44:49;9.20;;;7.80;;
51925;SDS011;37952;51.938;15.480;2022-11-12T17:47:52;10.70;;;8.20;;
51925;SDS011;37952;51.938;15.480;2022-11-12T17:51:05;13.70;;;9.20;;
51925;SDS011;37952;51.938;15.480;2022-11-12T17:54:16;16.20;;;10.10;;
51925;SDS011;37952;51.938;15.480;2022-11-12T17:57:19;13.90;;;10.10;;
51925;SDS011;37952;51.938;15.480;2022-11-12T18:00:22;14.50;;;8.50;;
51925;SDS011;37952;51.938;15.480;2022-11-12T18:03:25;8.30;;;7.40;;
51925;SDS011;37952;51.938;15.480;2022-11-12T18:06:29;10.40;;;8.10;;
51925;SDS011;37952;51.938;15.480;2022-11-12T18:09:34;10.70;;;8.60;;
51925;SDS011;37952;51.938;15.480;2022-11-12T18:12:39;17.40;;;12.20;;
51925;SDS011;37952;51.938;15.480;2022-11-12T18:15:42;18.20;;;12.40;;
51925;SDS011;37952;51.938;15.480;2022-11-12T18:18:45;14.70;;;8.80;;
51925;SDS011;37952;51.938;15.480;2022-11-12T18:21:48;14.50;;;8.90;;
51925;SDS011;37952;51.938;15.480;2022-11-12T18:24:51;9.90;;;8.90;;
51925;SDS011;37952;51.938;15.480;2022-11-12T18:27:54;18.30;;;11.10;;
51925;SDS011;37952;51.938;15.480;2022-11-12T18:31:01;18.70;;;12.00;;
51925;SDS011;37952;51.938;15.480;2022-11-12T18:34:08;14.60;;;12.30;;
51925;SDS011;37952;51.938;15.480;2022-11-12T18:37:15;13.60;;;8.90;;
51925;SDS011;37952;51.938;15.480;2022-11-12T18:40:18;15.70;;;9.20;;
51925;SDS011;37952;51.938;15.480;2022-11-12T18:43:22;11.00;;;8.10;;
51925;SDS011;37952;51.938;15.480;2022-11-12T18:46:25;9.00;;;8.20;;
51925;SDS011;37952;51.938;15.480;2022-11-12T18:49:28;10.50;;;9.40;;
51925;SDS011;37952;51.938;15.480;2022-11-12T18:52:31;13.90;;;10.30;;
51925;SDS011;37952;51.938;15.480;2022-11-12T18:55:35;14.00;;;8.50;;
51925;SDS011;37952;51.938;15.480;2022-11-12T18:58:38;13.60;;;9.80;;
51925;SDS011;37952;51.938;15.480;2022-11-12T19:01:41;10.40;;;9.10;;
51925;SDS011;37952;51.938;15.480;2022-11-12T19:04:44;19.70;;;12.80;;
51925;SDS011;37952;51.938;15.480;2022-11-12T19:07:47;14.90;;;12.20;;
51925;SDS011;37952;51.938;15.480;2022-11-12T19:10:55;19.70;;;14.60;;
51925;SDS011;37952;51.938;15.480;2022-11-12T19:14:03;23.00;;;14.60;;
51925;SDS011;37952;51.938;15.480;2022-11-12T19:17:06;21.80;;;12.70;;
51925;SDS011;37952;51.938;15.480;2022-11-12T19:20:09;26.70;;;16.30;;
51925;SDS011;37952;51.938;15.480;2022-11-12T19:23:12;32.10;;;18.80;;
51925;SDS011;37952;51.938;15.480;2022-11-12T19:26:16;29.20;;;19.70;;
51925;SDS011;37952;51.938;15.480;2022-11-12T19:29:19;38.70;;;22.40;;
51925;SDS011;37952;51.938;15.480;2022-11-12T19:32:24;40.00;;;19.40;;
51925;SDS011;37952;51.938;15.480;2022-11-12T19:35:27;31.60;;;19.10;;
51925;SDS011;37952;51.938;15.480;2022-11-12T19:38:32;33.20;;;19.30;;
51925;SDS011;37952;51.938;15.480;2022-11-12T19:41:35;32.50;;;19.60;;
51925;SDS011;37952;51.938;15.480;2022-11-12T19:44:38;24.90;;;17.50;;
51925;SDS011;37952;51.938;15.480;2022-11-12T19:47:41;20.50;;;13.10;;
51925;SDS011;37952;51.938;15.480;2022-11-12T19:50:47;22.30;;;12.90;;
51925;SDS011;37952;51.938;15.480;2022-11-12T19:53:50;16.70;;;11.90;;
51925;SDS011;37952;51.938;15.480;2022-11-12T19:56:54;18.80;;;14.30;;
51925;SDS011;37952;51.938;15.480;2022-11-12T19:59:57;24.40;;;16.70;;
51925;SDS011;37952;51.938;15.480;2022-11-12T20:03:05;24.50;;;15.90;;
51925;SDS011;37952;51.938;15.480;2022-11-12T20:06:12;26.30;;;13.60;;
51925;SDS011;37952;51.938;15.480;2022-11-12T20:12:49;23.60;;;14.70;;
51925;SDS011;37952;51.938;15.480;2022-11-12T20:15:55;23.00;;;16.50;;